sensor_id;sensor_type;location;lat;lon;timestamp;P1;durP1;ratioP1;P2;durP2;ratioP2
79261;SDS011;68699;48.220;16.358;2023-05-07T00:01:51;3.57;;;3.00;;
79261;SDS011;68699;48.220;16.358;2023-05-07T00:04:17;2.60;;;2.40;;
79261;SDS011;68699;48.220;16.358;2023-05-07T00:06:43;2.80;;;2.60;;
79261;SDS011;68699;48.220;16.358;2023-05-07T00:09:09;3.63;;;2.63;;
79261;SDS011;68699;48.220;16.358;2023-05-07T00:11:35;2.77;;;2.57;;
79261;SDS011;68699;48.220;16.358;2023-05-07T00:14:02;2.80;;;2.60;;
79261;SDS011;68699;48.220;16.358;2023-05-07T00:16:27;2.70;;;2.50;;
79261;SDS011;68699;48.220;16.358;2023-05-07T00:18:54;2.97;;;2.60;;
79261;SDS011;68699;48.220;16.358;2023-05-07T00:21:20;3.63;;;2.73;;
79261;SDS011;68699;48.220;16.358;2023-05-07T00:23:46;2.93;;;2.73;;
79261;SDS011;68699;48.220;16.358;2023-05-07T00:26:12;3.13;;;2.80;;
79261;SDS011;68699;48.220;16.358;2023-05-07T00:28:38;3.37;;;2.57;;
79261;SDS011;68699;48.220;16.358;2023-05-07T00:31:04;2.70;;;2.50;;
79261;SDS011;68699;48.220;16.358;2023-05-07T00:33:31;2.63;;;2.43;;
79261;SDS011;68699;48.220;16.358;2023-05-07T00:35:57;2.67;;;2.47;;
79261;SDS011;68699;48.220;16.358;2023-05-07T00:38:23;2.90;;;2.70;;
79261;SDS011;68699;48.220;16.358;2023-05-07T00:40:49;3.47;;;2.87;;
79261;SDS011;68699;48.220;16.358;2023-05-07T00:43:16;4.53;;;2.60;;
79261;SDS011;68699;48.220;16.358;2023-05-07T00:45:42;3.27;;;2.90;;
79261;SDS011;68699;48.220;16.358;2023-05-07T00:48:08;3.67;;;2.80;;
79261;SDS011;68699;48.220;16.358;2023-05-07T00:50:34;3.30;;;3.00;;
79261;SDS011;68699;48.220;16.358;2023-05-07T00:53:00;3.30;;;3.03;;
79261;SDS011;68699;48.220;16.358;2023-05-07T00:55:27;4.63;;;3.40;;
79261;SDS011;68699;48.220;16.358;2023-05-07T00:57:53;3.23;;;2.97;;
79261;SDS011;68699;48.220;16.358;2023-05-07T01:00:19;4.57;;;3.87;;
79261;SDS011;68699;48.220;16.358;2023-05-07T01:02:46;3.80;;;3.50;;
79261;SDS011;68699;48.220;16.358;2023-05-07T01:05:12;3.20;;;3.00;;
79261;SDS011;68699;48.220;16.358;2023-05-07T01:07:40;3.30;;;3.10;;
79261;SDS011;68699;48.220;16.358;2023-05-07T01:10:06;3.50;;;3.20;;
79261;SDS011;68699;48.220;16.358;2023-05-07T01:12:33;3.50;;;3.20;;
79261;SDS011;68699;48.220;16.358;2023-05-07T01:15:03;3.00;;;2.80;;
79261;SDS011;68699;48.220;16.358;2023-05-07T01:17:32;3.60;;;3.30;;
79261;SDS011;68699;48.220;16.358;2023-05-07T01:19:59;3.07;;;2.80;;
79261;SDS011;68699;48.220;16.358;2023-05-07T01:22:44;2.60;;;2.40;;
79261;SDS011;68699;48.220;16.358;2023-05-07T01:25:10;3.50;;;2.20;;
79261;SDS011;68699;48.220;16.358;2023-05-07T01:27:36;2.50;;;2.30;;
79261;SDS011;68699;48.220;16.358;2023-05-07T01:30:05;2.30;;;2.10;;
79261;SDS011;68699;48.220;16.358;2023-05-07T01:32:33;2.77;;;2.23;;
79261;SDS011;68699;48.220;16.358;2023-05-07T01:35:01;2.50;;;2.30;;
79261;SDS011;68699;48.220;16.358;2023-05-07T01:37:28;2.57;;;2.37;;
79261;SDS011;68699;48.220;16.358;2023-05-07T01:39:55;2.67;;;2.43;;
79261;SDS011;68699;48.220;16.358;2023-05-07T01:42:21;2.40;;;2.20;;
79261;SDS011;68699;48.220;16.358;2023-05-07T01:44:47;2.50;;;2.30;;
79261;SDS011;68699;48.220;16.358;2023-05-07T01:47:13;3.10;;;1.97;;
79261;SDS011;68699;48.220;16.358;2023-05-07T01:49:40;2.97;;;2.40;;
79261;SDS011;68699;48.220;16.358;2023-05-07T01:52:06;2.80;;;2.60;;
79261;SDS011;68699;48.220;16.358;2023-05-07T01:54:32;2.77;;;2.57;;
79261;SDS011;68699;48.220;16.358;2023-05-07T01:56:58;2.77;;;2.57;;
79261;SDS011;68699;48.220;16.358;2023-05-07T01:59:25;3.03;;;2.80;;
79261;SDS011;68699;48.220;16.358;2023-05-07T02:01:51;3.20;;;2.90;;
79261;SDS011;68699;48.220;16.358;2023-05-07T02:04:17;3.47;;;2.90;;
79261;SDS011;68699;48.220;16.358;2023-05-07T02:06:43;3.13;;;2.77;;
79261;SDS011;68699;48.220;16.358;2023-05-07T02:09:09;3.50;;;3.20;;
79261;SDS011;68699;48.220;16.358;2023-05-07T02:11:35;3.80;;;3.50;;
79261;SDS011;68699;48.220;16.358;2023-05-07T02:14:01;3.80;;;3.50;;
79261;SDS011;68699;48.220;16.358;2023-05-07T02:16:27;3.80;;;3.50;;
79261;SDS011;68699;48.220;16.358;2023-05-07T02:18:53;3.40;;;3.10;;
79261;SDS011;68699;48.220;16.358;2023-05-07T02:21:19;3.77;;;3.47;;
79261;SDS011;68699;48.220;16.358;2023-05-07T02:23:46;3.23;;;3.03;;
79261;SDS011;68699;48.220;16.358;2023-05-07T02:26:11;3.90;;;3.60;;
79261;SDS011;68699;48.220;16.358;2023-05-07T02:28:37;3.90;;;3.60;;
79261;SDS011;68699;48.220;16.358;2023-05-07T02:31:03;3.97;;;3.43;;
79261;SDS011;68699;48.220;16.358;2023-05-07T02:33:30;3.70;;;3.40;;
79261;SDS011;68699;48.220;16.358;2023-05-07T02:35:56;3.73;;;3.10;;
79261;SDS011;68699;48.220;16.358;2023-05-07T02:38:22;3.23;;;2.93;;
79261;SDS011;68699;48.220;16.358;2023-05-07T02:40:48;3.03;;;2.73;;
79261;SDS011;68699;48.220;16.358;2023-05-07T02:43:15;3.17;;;2.87;;
79261;SDS011;68699;48.220;16.358;2023-05-07T02:45:41;2.60;;;2.50;;
79261;SDS011;68699;48.220;16.358;2023-05-07T02:48:08;3.07;;;2.77;;
79261;SDS011;68699;48.220;16.358;2023-05-07T02:50:34;3.30;;;2.80;;
79261;SDS011;68699;48.220;16.358;2023-05-07T02:53:00;3.13;;;2.83;;
79261;SDS011;68699;48.220;16.358;2023-05-07T02:55:26;3.00;;;2.80;;
79261;SDS011;68699;48.220;16.358;2023-05-07T02:57:52;3.60;;;3.30;;
79261;SDS011;68699;48.220;16.358;2023-05-07T03:00:18;3.33;;;3.03;;
79261;SDS011;68699;48.220;16.358;2023-05-07T03:02:44;4.27;;;3.87;;
79261;SDS011;68699;48.220;16.358;2023-05-07T03:05:10;3.57;;;3.27;;
79261;SDS011;68699;48.220;16.358;2023-05-07T03:07:37;4.13;;;3.83;;
79261;SDS011;68699;48.220;16.358;2023-05-07T03:10:03;4.67;;;3.87;;
79261;SDS011;68699;48.220;16.358;2023-05-07T03:12:30;4.27;;;3.87;;
79261;SDS011;68699;48.220;16.358;2023-05-07T03:14:56;4.57;;;4.17;;
79261;SDS011;68699;48.220;16.358;2023-05-07T03:17:22;4.60;;;4.20;;
79261;SDS011;68699;48.220;16.358;2023-05-07T03:19:48;4.63;;;4.23;;
79261;SDS011;68699;48.220;16.358;2023-05-07T03:22:14;4.97;;;4.57;;
79261;SDS011;68699;48.220;16.358;2023-05-07T03:24:40;5.10;;;4.60;;
79261;SDS011;68699;48.220;16.358;2023-05-07T03:27:06;5.87;;;5.30;;
79261;SDS011;68699;48.220;16.358;2023-05-07T03:29:32;6.23;;;5.67;;
79261;SDS011;68699;48.220;16.358;2023-05-07T03:31:58;5.80;;;5.30;;
79261;SDS011;68699;48.220;16.358;2023-05-07T03:34:24;5.37;;;4.87;;
79261;SDS011;68699;48.220;16.358;2023-05-07T03:36:50;4.90;;;4.50;;
79261;SDS011;68699;48.220;16.358;2023-05-07T03:39:16;5.00;;;4.60;;
79261;SDS011;68699;48.220;16.358;2023-05-07T03:41:42;5.53;;;4.80;;
79261;SDS011;68699;48.220;16.358;2023-05-07T03:44:09;5.47;;;5.07;;
79261;SDS011;68699;48.220;16.358;2023-05-07T03:46:35;6.03;;;5.47;;
79261;SDS011;68699;48.220;16.358;2023-05-07T03:49:00;7.50;;;6.90;;
79261;SDS011;68699;48.220;16.358;2023-05-07T03:51:26;6.30;;;5.77;;
79261;SDS011;68699;48.220;16.358;2023-05-07T03:53:52;5.80;;;5.30;;
79261;SDS011;68699;48.220;16.358;2023-05-07T03:56:19;6.77;;;6.17;;
79261;SDS011;68699;48.220;16.358;2023-05-07T03:58:46;6.10;;;5.60;;
79261;SDS011;68699;48.220;16.358;2023-05-07T04:01:13;6.60;;;6.03;;
79261;SDS011;68699;48.220;16.358;2023-05-07T04:03:39;7.07;;;6.33;;
79261;SDS011;68699;48.220;16.358;2023-05-07T04:06:05;7.27;;;6.67;;
79261;SDS011;68699;48.220;16.358;2023-05-07T04:08:31;7.90;;;7.20;;
79261;SDS011;68699;48.220;16.358;2023-05-07T04:10:57;8.40;;;7.70;;
79261;SDS011;68699;48.220;16.358;2023-05-07T04:13:24;7.00;;;6.40;;
79261;SDS011;68699;48.220;16.358;2023-05-07T04:15:50;8.33;;;7.63;;
79261;SDS011;68699;48.220;16.358;2023-05-07T04:18:17;9.83;;;9.03;;
79261;SDS011;68699;48.220;16.358;2023-05-07T04:20:43;10.47;;;9.47;;
79261;SDS011;68699;48.220;16.358;2023-05-07T04:23:10;12.67;;;11.57;;
79261;SDS011;68699;48.220;16.358;2023-05-07T04:25:36;12.73;;;11.57;;
79261;SDS011;68699;48.220;16.358;2023-05-07T04:28:02;12.03;;;10.90;;
79261;SDS011;68699;48.220;16.358;2023-05-07T04:30:28;13.93;;;12.53;;
79261;SDS011;68699;48.220;16.358;2023-05-07T04:32:54;13.83;;;12.53;;
79261;SDS011;68699;48.220;16.358;2023-05-07T04:35:21;13.17;;;11.97;;
79261;SDS011;68699;48.220;16.358;2023-05-07T04:37:47;15.03;;;13.63;;
79261;SDS011;68699;48.220;16.358;2023-05-07T04:40:13;14.87;;;13.37;;
79261;SDS011;68699;48.220;16.358;2023-05-07T04:42:42;16.30;;;13.97;;
79261;SDS011;68699;48.220;16.358;2023-05-07T04:45:08;15.23;;;13.83;;
79261;SDS011;68699;48.220;16.358;2023-05-07T04:47:35;14.57;;;13.10;;
79261;SDS011;68699;48.220;16.358;2023-05-07T04:50:01;14.93;;;13.53;;
79261;SDS011;68699;48.220;16.358;2023-05-07T04:52:27;15.30;;;13.80;;
79261;SDS011;68699;48.220;16.358;2023-05-07T04:54:53;16.23;;;14.53;;
79261;SDS011;68699;48.220;16.358;2023-05-07T04:57:19;14.70;;;13.40;;
79261;SDS011;68699;48.220;16.358;2023-05-07T04:59:45;15.20;;;13.80;;
79261;SDS011;68699;48.220;16.358;2023-05-07T05:02:11;15.83;;;14.43;;
79261;SDS011;68699;48.220;16.358;2023-05-07T05:04:37;15.60;;;14.20;;
79261;SDS011;68699;48.220;16.358;2023-05-07T05:07:03;15.40;;;13.90;;
79261;SDS011;68699;48.220;16.358;2023-05-07T05:09:29;16.03;;;14.50;;
79261;SDS011;68699;48.220;16.358;2023-05-07T05:11:55;15.80;;;14.27;;
79261;SDS011;68699;48.220;16.358;2023-05-07T05:14:21;15.17;;;13.77;;
79261;SDS011;68699;48.220;16.358;2023-05-07T05:16:47;16.60;;;15.10;;
79261;SDS011;68699;48.220;16.358;2023-05-07T05:19:13;19.07;;;17.27;;
79261;SDS011;68699;48.220;16.358;2023-05-07T05:21:41;21.83;;;19.73;;
79261;SDS011;68699;48.220;16.358;2023-05-07T05:24:07;20.70;;;18.60;;
79261;SDS011;68699;48.220;16.358;2023-05-07T05:26:33;22.33;;;20.03;;
79261;SDS011;68699;48.220;16.358;2023-05-07T05:29:00;21.10;;;19.00;;
79261;SDS011;68699;48.220;16.358;2023-05-07T05:31:26;21.20;;;19.17;;
79261;SDS011;68699;48.220;16.358;2023-05-07T05:33:52;22.43;;;20.20;;
79261;SDS011;68699;48.220;16.358;2023-05-07T05:36:18;22.10;;;20.00;;
79261;SDS011;68699;48.220;16.358;2023-05-07T05:38:44;20.17;;;18.30;;
79261;SDS011;68699;48.220;16.358;2023-05-07T05:41:10;20.10;;;18.20;;
79261;SDS011;68699;48.220;16.358;2023-05-07T05:43:36;20.57;;;18.60;;
79261;SDS011;68699;48.220;16.358;2023-05-07T05:46:02;21.17;;;19.10;;
79261;SDS011;68699;48.220;16.358;2023-05-07T05:48:29;21.53;;;19.47;;
79261;SDS011;68699;48.220;16.358;2023-05-07T05:50:55;21.53;;;19.43;;
79261;SDS011;68699;48.220;16.358;2023-05-07T05:53:21;20.67;;;18.70;;
79261;SDS011;68699;48.220;16.358;2023-05-07T05:55:47;19.73;;;17.93;;
79261;SDS011;68699;48.220;16.358;2023-05-07T05:58:14;21.13;;;19.10;;
79261;SDS011;68699;48.220;16.358;2023-05-07T06:00:40;21.03;;;18.93;;
79261;SDS011;68699;48.220;16.358;2023-05-07T06:03:06;19.47;;;17.40;;
79261;SDS011;68699;48.220;16.358;2023-05-07T06:05:32;19.50;;;17.70;;
79261;SDS011;68699;48.220;16.358;2023-05-07T06:07:59;19.07;;;17.17;;
79261;SDS011;68699;48.220;16.358;2023-05-07T06:10:24;19.67;;;17.73;;
79261;SDS011;68699;48.220;16.358;2023-05-07T06:12:52;19.13;;;17.33;;
79261;SDS011;68699;48.220;16.358;2023-05-07T06:15:18;18.63;;;16.87;;
79261;SDS011;68699;48.220;16.358;2023-05-07T06:17:44;19.33;;;17.43;;
79261;SDS011;68699;48.220;16.358;2023-05-07T06:20:10;19.43;;;17.63;;
79261;SDS011;68699;48.220;16.358;2023-05-07T06:22:36;19.27;;;17.20;;
79261;SDS011;68699;48.220;16.358;2023-05-07T06:25:02;19.73;;;17.77;;
79261;SDS011;68699;48.220;16.358;2023-05-07T06:27:28;18.63;;;16.73;;
79261;SDS011;68699;48.220;16.358;2023-05-07T06:29:54;20.67;;;18.67;;
79261;SDS011;68699;48.220;16.358;2023-05-07T06:32:20;18.37;;;16.67;;
79261;SDS011;68699;48.220;16.358;2023-05-07T06:34:46;19.33;;;17.53;;
79261;SDS011;68699;48.220;16.358;2023-05-07T06:37:12;18.47;;;16.70;;
79261;SDS011;68699;48.220;16.358;2023-05-07T06:39:38;18.67;;;16.97;;
79261;SDS011;68699;48.220;16.358;2023-05-07T06:42:04;17.37;;;15.77;;
79261;SDS011;68699;48.220;16.358;2023-05-07T06:44:31;18.67;;;16.97;;
79261;SDS011;68699;48.220;16.358;2023-05-07T06:46:57;19.60;;;17.50;;
79261;SDS011;68699;48.220;16.358;2023-05-07T06:49:23;19.37;;;17.50;;
79261;SDS011;68699;48.220;16.358;2023-05-07T06:51:49;17.80;;;16.13;;
79261;SDS011;68699;48.220;16.358;2023-05-07T06:54:15;18.17;;;16.37;;
79261;SDS011;68699;48.220;16.358;2023-05-07T06:56:41;18.33;;;16.63;;
79261;SDS011;68699;48.220;16.358;2023-05-07T06:59:07;17.93;;;16.27;;
79261;SDS011;68699;48.220;16.358;2023-05-07T07:01:33;18.63;;;16.93;;
79261;SDS011;68699;48.220;16.358;2023-05-07T07:03:59;19.37;;;17.57;;
79261;SDS011;68699;48.220;16.358;2023-05-07T07:06:25;18.23;;;16.53;;
79261;SDS011;68699;48.220;16.358;2023-05-07T07:08:52;19.63;;;17.77;;
79261;SDS011;68699;48.220;16.358;2023-05-07T07:11:18;19.87;;;17.97;;
79261;SDS011;68699;48.220;16.358;2023-05-07T07:13:44;19.33;;;17.33;;
79261;SDS011;68699;48.220;16.358;2023-05-07T07:16:10;19.93;;;17.93;;
79261;SDS011;68699;48.220;16.358;2023-05-07T07:18:36;18.33;;;16.63;;
79261;SDS011;68699;48.220;16.358;2023-05-07T07:21:02;20.00;;;17.87;;
79261;SDS011;68699;48.220;16.358;2023-05-07T07:23:28;18.73;;;16.83;;
79261;SDS011;68699;48.220;16.358;2023-05-07T07:25:54;19.37;;;17.37;;
79261;SDS011;68699;48.220;16.358;2023-05-07T07:28:20;19.90;;;18.13;;
79261;SDS011;68699;48.220;16.358;2023-05-07T07:30:47;18.33;;;16.63;;
79261;SDS011;68699;48.220;16.358;2023-05-07T07:33:13;19.50;;;17.70;;
79261;SDS011;68699;48.220;16.358;2023-05-07T07:35:39;19.07;;;17.27;;
79261;SDS011;68699;48.220;16.358;2023-05-07T07:38:05;18.30;;;16.60;;
79261;SDS011;68699;48.220;16.358;2023-05-07T07:40:31;18.27;;;16.57;;
79261;SDS011;68699;48.220;16.358;2023-05-07T07:42:57;17.03;;;15.40;;
79261;SDS011;68699;48.220;16.358;2023-05-07T07:45:24;16.43;;;14.93;;
79261;SDS011;68699;48.220;16.358;2023-05-07T07:47:50;16.43;;;14.87;;
79261;SDS011;68699;48.220;16.358;2023-05-07T07:50:17;16.53;;;14.93;;
79261;SDS011;68699;48.220;16.358;2023-05-07T07:52:43;15.17;;;13.67;;
79261;SDS011;68699;48.220;16.358;2023-05-07T07:55:09;16.43;;;14.93;;
79261;SDS011;68699;48.220;16.358;2023-05-07T07:57:35;16.23;;;14.73;;
79261;SDS011;68699;48.220;16.358;2023-05-07T08:00:02;16.23;;;14.73;;
79261;SDS011;68699;48.220;16.358;2023-05-07T08:02:28;15.60;;;14.20;;
79261;SDS011;68699;48.220;16.358;2023-05-07T08:04:54;17.67;;;15.97;;
79261;SDS011;68699;48.220;16.358;2023-05-07T08:07:20;18.70;;;16.90;;
79261;SDS011;68699;48.220;16.358;2023-05-07T08:09:47;17.27;;;15.60;;
79261;SDS011;68699;48.220;16.358;2023-05-07T08:12:13;18.37;;;16.40;;
79261;SDS011;68699;48.220;16.358;2023-05-07T08:14:40;16.93;;;15.23;;
79261;SDS011;68699;48.220;16.358;2023-05-07T08:17:06;16.20;;;14.60;;
79261;SDS011;68699;48.220;16.358;2023-05-07T08:19:32;17.03;;;15.43;;
79261;SDS011;68699;48.220;16.358;2023-05-07T08:21:58;14.77;;;13.47;;
79261;SDS011;68699;48.220;16.358;2023-05-07T08:24:24;14.30;;;12.90;;
79261;SDS011;68699;48.220;16.358;2023-05-07T08:26:50;12.30;;;11.10;;
79261;SDS011;68699;48.220;16.358;2023-05-07T08:29:16;12.20;;;11.10;;
79261;SDS011;68699;48.220;16.358;2023-05-07T08:31:42;14.43;;;13.03;;
79261;SDS011;68699;48.220;16.358;2023-05-07T08:34:08;13.43;;;12.23;;
79261;SDS011;68699;48.220;16.358;2023-05-07T08:36:34;14.20;;;12.90;;
79261;SDS011;68699;48.220;16.358;2023-05-07T08:39:00;13.57;;;12.33;;
79261;SDS011;68699;48.220;16.358;2023-05-07T08:41:27;14.03;;;12.63;;
79261;SDS011;68699;48.220;16.358;2023-05-07T08:43:53;11.63;;;10.53;;
79261;SDS011;68699;48.220;16.358;2023-05-07T08:46:22;12.17;;;11.07;;
79261;SDS011;68699;48.220;16.358;2023-05-07T08:48:48;11.87;;;10.77;;
79261;SDS011;68699;48.220;16.358;2023-05-07T08:51:19;12.50;;;11.40;;
79261;SDS011;68699;48.220;16.358;2023-05-07T08:53:46;11.87;;;10.80;;
79261;SDS011;68699;48.220;16.358;2023-05-07T08:56:13;12.03;;;11.03;;
79261;SDS011;68699;48.220;16.358;2023-05-07T08:58:45;12.23;;;11.20;;
79261;SDS011;68699;48.220;16.358;2023-05-07T09:01:15;11.13;;;10.20;;
79261;SDS011;68699;48.220;16.358;2023-05-07T09:03:41;10.80;;;9.80;;
79261;SDS011;68699;48.220;16.358;2023-05-07T09:06:09;10.57;;;9.60;;
79261;SDS011;68699;48.220;16.358;2023-05-07T09:08:36;12.03;;;10.93;;
79261;SDS011;68699;48.220;16.358;2023-05-07T09:11:02;12.27;;;11.17;;
79261;SDS011;68699;48.220;16.358;2023-05-07T09:13:28;11.07;;;10.17;;
79261;SDS011;68699;48.220;16.358;2023-05-07T09:15:55;11.70;;;10.70;;
79261;SDS011;68699;48.220;16.358;2023-05-07T09:18:21;12.40;;;11.30;;
79261;SDS011;68699;48.220;16.358;2023-05-07T09:20:49;11.43;;;10.43;;
79261;SDS011;68699;48.220;16.358;2023-05-07T09:23:15;11.07;;;10.07;;
79261;SDS011;68699;48.220;16.358;2023-05-07T09:25:42;10.53;;;9.63;;
79261;SDS011;68699;48.220;16.358;2023-05-07T09:28:08;11.80;;;10.80;;
79261;SDS011;68699;48.220;16.358;2023-05-07T09:30:35;10.40;;;9.43;;
79261;SDS011;68699;48.220;16.358;2023-05-07T09:33:02;11.50;;;10.50;;
79261;SDS011;68699;48.220;16.358;2023-05-07T09:35:29;12.57;;;11.37;;
79261;SDS011;68699;48.220;16.358;2023-05-07T09:37:55;12.47;;;11.33;;
79261;SDS011;68699;48.220;16.358;2023-05-07T09:40:25;11.90;;;10.87;;
79261;SDS011;68699;48.220;16.358;2023-05-07T09:42:52;11.27;;;10.20;;
79261;SDS011;68699;48.220;16.358;2023-05-07T09:45:36;11.17;;;10.17;;
79261;SDS011;68699;48.220;16.358;2023-05-07T09:48:04;11.60;;;10.50;;
79261;SDS011;68699;48.220;16.358;2023-05-07T09:50:35;11.27;;;10.27;;
79261;SDS011;68699;48.220;16.358;2023-05-07T09:53:03;10.73;;;9.73;;
79261;SDS011;68699;48.220;16.358;2023-05-07T09:55:29;10.50;;;9.60;;
79261;SDS011;68699;48.220;16.358;2023-05-07T09:57:55;10.13;;;9.23;;
79261;SDS011;68699;48.220;16.358;2023-05-07T10:00:21;10.23;;;9.17;;
79261;SDS011;68699;48.220;16.358;2023-05-07T10:02:48;12.00;;;10.90;;
79261;SDS011;68699;48.220;16.358;2023-05-07T10:05:15;10.47;;;9.47;;
79261;SDS011;68699;48.220;16.358;2023-05-07T10:07:42;11.50;;;10.40;;
79261;SDS011;68699;48.220;16.358;2023-05-07T10:10:08;10.57;;;9.57;;
79261;SDS011;68699;48.220;16.358;2023-05-07T10:12:35;9.80;;;8.90;;
79261;SDS011;68699;48.220;16.358;2023-05-07T10:15:10;9.77;;;8.97;;
79261;SDS011;68699;48.220;16.358;2023-05-07T10:17:39;11.00;;;9.80;;
79261;SDS011;68699;48.220;16.358;2023-05-07T10:20:06;10.50;;;9.60;;
79261;SDS011;68699;48.220;16.358;2023-05-07T10:22:37;10.40;;;9.50;;
79261;SDS011;68699;48.220;16.358;2023-05-07T10:25:05;11.00;;;10.00;;
79261;SDS011;68699;48.220;16.358;2023-05-07T10:27:32;11.27;;;10.27;;
79261;SDS011;68699;48.220;16.358;2023-05-07T10:30:21;11.00;;;9.90;;
79261;SDS011;68699;48.220;16.358;2023-05-07T10:32:53;11.30;;;10.30;;
79261;SDS011;68699;48.220;16.358;2023-05-07T10:35:21;10.27;;;9.33;;
79261;SDS011;68699;48.220;16.358;2023-05-07T10:37:48;12.43;;;11.33;;
79261;SDS011;68699;48.220;16.358;2023-05-07T10:40:15;11.83;;;10.73;;
79261;SDS011;68699;48.220;16.358;2023-05-07T10:45:21;11.37;;;10.37;;
79261;SDS011;68699;48.220;16.358;2023-05-07T10:50:32;11.30;;;10.30;;
79261;SDS011;68699;48.220;16.358;2023-05-07T10:55:43;11.87;;;10.67;;
79261;SDS011;68699;48.220;16.358;2023-05-07T10:58:25;11.47;;;10.40;;
79261;SDS011;68699;48.220;16.358;2023-05-07T11:00:55;11.50;;;10.50;;
79261;SDS011;68699;48.220;16.358;2023-05-07T11:03:21;10.20;;;9.30;;
79261;SDS011;68699;48.220;16.358;2023-05-07T11:05:47;10.47;;;9.57;;
79261;SDS011;68699;48.220;16.358;2023-05-07T11:08:52;11.07;;;9.93;;
79261;SDS011;68699;48.220;16.358;2023-05-07T11:11:18;10.97;;;9.40;;
79261;SDS011;68699;48.220;16.358;2023-05-07T11:16:20;10.20;;;9.30;;
79261;SDS011;68699;48.220;16.358;2023-05-07T11:18:51;9.53;;;8.73;;
79261;SDS011;68699;48.220;16.358;2023-05-07T11:21:33;11.00;;;9.83;;
79261;SDS011;68699;48.220;16.358;2023-05-07T11:24:00;9.80;;;8.90;;
79261;SDS011;68699;48.220;16.358;2023-05-07T11:26:27;10.73;;;9.73;;
79261;SDS011;68699;48.220;16.358;2023-05-07T11:28:53;9.50;;;8.63;;
79261;SDS011;68699;48.220;16.358;2023-05-07T11:31:24;10.90;;;9.90;;
79261;SDS011;68699;48.220;16.358;2023-05-07T11:33:51;9.53;;;8.73;;
79261;SDS011;68699;48.220;16.358;2023-05-07T11:36:17;8.30;;;7.50;;
79261;SDS011;68699;48.220;16.358;2023-05-07T11:38:44;9.97;;;9.00;;
79261;SDS011;68699;48.220;16.358;2023-05-07T11:41:10;9.07;;;8.37;;
79261;SDS011;68699;48.220;16.358;2023-05-07T11:43:36;9.77;;;8.87;;
79261;SDS011;68699;48.220;16.358;2023-05-07T11:46:11;8.40;;;7.70;;
79261;SDS011;68699;48.220;16.358;2023-05-07T11:48:39;8.57;;;7.67;;
79261;SDS011;68699;48.220;16.358;2023-05-07T11:51:06;9.43;;;8.63;;
79261;SDS011;68699;48.220;16.358;2023-05-07T11:53:38;8.30;;;7.60;;
79261;SDS011;68699;48.220;16.358;2023-05-07T11:56:11;9.07;;;8.27;;
79261;SDS011;68699;48.220;16.358;2023-05-07T11:58:38;9.10;;;8.23;;
79261;SDS011;68699;48.220;16.358;2023-05-07T12:01:06;8.43;;;7.73;;
79261;SDS011;68699;48.220;16.358;2023-05-07T12:03:33;9.17;;;8.40;;
79261;SDS011;68699;48.220;16.358;2023-05-07T12:05:59;7.87;;;7.20;;
79261;SDS011;68699;48.220;16.358;2023-05-07T12:08:25;7.83;;;7.13;;
79261;SDS011;68699;48.220;16.358;2023-05-07T12:10:51;8.37;;;7.67;;
79261;SDS011;68699;48.220;16.358;2023-05-07T12:13:18;8.33;;;7.63;;
79261;SDS011;68699;48.220;16.358;2023-05-07T12:15:44;8.60;;;7.90;;
79261;SDS011;68699;48.220;16.358;2023-05-07T12:18:11;7.43;;;6.73;;
79261;SDS011;68699;48.220;16.358;2023-05-07T12:20:37;8.80;;;7.97;;
79261;SDS011;68699;48.220;16.358;2023-05-07T12:23:03;7.30;;;6.70;;
79261;SDS011;68699;48.220;16.358;2023-05-07T12:25:30;9.20;;;8.40;;
79261;SDS011;68699;48.220;16.358;2023-05-07T12:27:56;7.60;;;6.83;;
79261;SDS011;68699;48.220;16.358;2023-05-07T12:30:24;7.60;;;7.00;;
79261;SDS011;68699;48.220;16.358;2023-05-07T12:32:54;9.77;;;8.97;;
79261;SDS011;68699;48.220;16.358;2023-05-07T12:35:53;8.07;;;7.43;;
79261;SDS011;68699;48.220;16.358;2023-05-07T12:38:13;7.67;;;6.87;;
79261;SDS011;68699;48.220;16.358;2023-05-07T12:40:43;8.90;;;8.20;;
79261;SDS011;68699;48.220;16.358;2023-05-07T12:43:18;8.80;;;8.00;;
79261;SDS011;68699;48.220;16.358;2023-05-07T12:45:45;8.40;;;7.60;;
79261;SDS011;68699;48.220;16.358;2023-05-07T12:48:12;8.43;;;7.63;;
79261;SDS011;68699;48.220;16.358;2023-05-07T12:50:38;7.37;;;6.77;;
79261;SDS011;68699;48.220;16.358;2023-05-07T12:53:06;7.07;;;6.47;;
79261;SDS011;68699;48.220;16.358;2023-05-07T12:58:08;7.30;;;6.70;;
79261;SDS011;68699;48.220;16.358;2023-05-07T13:03:00;6.47;;;5.87;;
79261;SDS011;68699;48.220;16.358;2023-05-07T13:05:26;6.93;;;6.33;;
79261;SDS011;68699;48.220;16.358;2023-05-07T13:07:52;6.37;;;5.77;;
79261;SDS011;68699;48.220;16.358;2023-05-07T13:10:19;7.10;;;6.33;;
79261;SDS011;68699;48.220;16.358;2023-05-07T13:12:45;9.17;;;7.53;;
79261;SDS011;68699;48.220;16.358;2023-05-07T13:15:11;7.80;;;6.93;;
79261;SDS011;68699;48.220;16.358;2023-05-07T13:17:37;6.40;;;5.90;;
79261;SDS011;68699;48.220;16.358;2023-05-07T13:20:03;6.50;;;5.80;;
79261;SDS011;68699;48.220;16.358;2023-05-07T13:22:31;6.50;;;6.00;;
79261;SDS011;68699;48.220;16.358;2023-05-07T13:24:57;7.00;;;6.07;;
79261;SDS011;68699;48.220;16.358;2023-05-07T13:27:23;6.30;;;5.70;;
79261;SDS011;68699;48.220;16.358;2023-05-07T13:29:49;7.77;;;6.37;;
79261;SDS011;68699;48.220;16.358;2023-05-07T13:32:15;6.53;;;6.03;;
79261;SDS011;68699;48.220;16.358;2023-05-07T13:34:41;7.13;;;6.53;;
79261;SDS011;68699;48.220;16.358;2023-05-07T13:37:07;6.30;;;5.80;;
79261;SDS011;68699;48.220;16.358;2023-05-07T13:39:33;6.63;;;6.03;;
79261;SDS011;68699;48.220;16.358;2023-05-07T13:41:59;6.60;;;6.00;;
79261;SDS011;68699;48.220;16.358;2023-05-07T13:44:26;5.70;;;5.20;;
79261;SDS011;68699;48.220;16.358;2023-05-07T13:46:52;6.47;;;5.87;;
79261;SDS011;68699;48.220;16.358;2023-05-07T13:49:18;7.23;;;6.70;;
79261;SDS011;68699;48.220;16.358;2023-05-07T13:51:44;5.63;;;5.17;;
79261;SDS011;68699;48.220;16.358;2023-05-07T13:54:10;5.67;;;5.20;;
79261;SDS011;68699;48.220;16.358;2023-05-07T13:56:36;5.67;;;5.17;;
79261;SDS011;68699;48.220;16.358;2023-05-07T13:59:02;5.97;;;5.47;;
79261;SDS011;68699;48.220;16.358;2023-05-07T14:01:28;5.50;;;5.10;;
79261;SDS011;68699;48.220;16.358;2023-05-07T14:03:55;5.27;;;4.87;;
79261;SDS011;68699;48.220;16.358;2023-05-07T14:06:23;5.57;;;5.07;;
79261;SDS011;68699;48.220;16.358;2023-05-07T14:08:49;5.37;;;4.97;;
79261;SDS011;68699;48.220;16.358;2023-05-07T14:11:15;5.10;;;4.70;;
79261;SDS011;68699;48.220;16.358;2023-05-07T14:13:41;5.67;;;5.17;;
79261;SDS011;68699;48.220;16.358;2023-05-07T14:16:07;5.40;;;4.90;;
79261;SDS011;68699;48.220;16.358;2023-05-07T14:18:33;4.57;;;4.17;;
79261;SDS011;68699;48.220;16.358;2023-05-07T14:21:01;5.60;;;5.10;;
79261;SDS011;68699;48.220;16.358;2023-05-07T14:23:27;5.00;;;4.60;;
79261;SDS011;68699;48.220;16.358;2023-05-07T14:25:54;5.17;;;4.77;;
79261;SDS011;68699;48.220;16.358;2023-05-07T14:28:22;4.77;;;4.43;;
79261;SDS011;68699;48.220;16.358;2023-05-07T14:30:48;5.07;;;4.67;;
79261;SDS011;68699;48.220;16.358;2023-05-07T14:33:14;5.47;;;4.60;;
79261;SDS011;68699;48.220;16.358;2023-05-07T14:35:40;4.87;;;4.37;;
79261;SDS011;68699;48.220;16.358;2023-05-07T14:38:06;4.60;;;4.30;;